createdAt,value
2018-09-15T00:02:20.023Z,20.80
2018-09-15T00:04:51.132Z,20.70
2018-09-15T00:07:23.032Z,20.60
2018-09-15T00:09:54.151Z,20.50
2018-09-15T00:12:25.144Z,20.40
2018-09-15T00:14:56.259Z,20.40
2018-09-15T00:17:27.464Z,20.30
2018-09-15T00:19:58.737Z,20.30
2018-09-15T00:22:29.764Z,20.20
2018-09-15T00:25:00.841Z,20.20
2018-09-15T00:27:31.877Z,20.00
2018-09-15T00:30:02.846Z,19.90
2018-09-15T00:32:44.652Z,19.80
2018-09-15T00:35:15.695Z,19.80
2018-09-15T00:37:46.708Z,19.70
2018-09-15T00:40:17.758Z,19.70
2018-09-15T00:42:48.909Z,19.80
2018-09-15T00:45:19.895Z,19.70
2018-09-15T00:47:51.177Z,19.70
2018-09-15T00:50:23.397Z,19.60
2018-09-15T00:52:55.030Z,19.40
2018-09-15T00:55:25.975Z,19.50
2018-09-15T00:57:56.963Z,19.50
2018-09-15T01:00:28.229Z,19.40
2018-09-15T01:02:59.263Z,19.30
2018-09-15T01:05:30.242Z,19.20
2018-09-15T01:08:01.193Z,19.10
2018-09-15T01:10:32.212Z,19.10
2018-09-15T01:13:03.218Z,19.00
2018-09-15T01:15:34.243Z,19.00
2018-09-15T01:18:05.250Z,19.00
2018-09-15T01:20:36.349Z,19.00
2018-09-15T01:23:07.443Z,18.90
2018-09-15T01:25:38.392Z,19.00
2018-09-15T01:28:09.386Z,19.20
2018-09-15T01:30:40.397Z,19.50
2018-09-15T01:33:12.146Z,19.50
2018-09-15T01:35:44.094Z,19.20
2018-09-15T01:38:15.518Z,19.20
2018-09-15T01:40:46.624Z,19.10
2018-09-15T01:43:17.640Z,19.10
2018-09-15T01:45:48.891Z,19.20
2018-09-15T01:48:20.011Z,19.30
2018-09-15T01:50:50.969Z,19.40
2018-09-15T01:53:22.096Z,19.40
2018-09-15T01:55:53.082Z,19.40
2018-09-15T01:58:24.010Z,19.30
2018-09-15T02:00:57.472Z,19.20
2018-09-15T02:03:29.759Z,19.10
2018-09-15T02:06:00.896Z,19.10
2018-09-15T02:08:31.882Z,19.10
2018-09-15T02:11:02.897Z,19.30
2018-09-15T02:13:33.925Z,19.20
2018-09-15T02:16:05.079Z,19.00
2018-09-15T02:18:36.181Z,18.80
2018-09-15T02:21:07.235Z,18.80
2018-09-15T02:23:38.168Z,18.80
2018-09-15T02:26:09.372Z,18.90
2018-09-15T02:28:40.308Z,19.00
2018-09-15T02:31:11.212Z,19.10
2018-09-15T02:33:42.156Z,19.20
2018-09-15T02:36:13.132Z,19.30
2018-09-15T02:38:44.113Z,19.30
2018-09-15T02:41:15.693Z,19.40
2018-09-15T02:43:47.163Z,19.50
2018-09-15T02:46:18.371Z,19.50
2018-09-15T02:48:49.421Z,19.50
2018-09-15T02:51:20.669Z,19.40
2018-09-15T02:53:51.876Z,19.30
2018-09-15T02:56:23.288Z,19.10
2018-09-15T02:58:54.374Z,19.00
2018-09-15T03:01:25.517Z,18.90
2018-09-15T03:03:56.594Z,18.90
2018-09-15T03:06:27.615Z,19.00
2018-09-15T03:08:58.694Z,19.20
2018-09-15T03:11:29.903Z,19.30
2018-09-15T03:14:00.992Z,19.20
2018-09-15T03:16:32.089Z,19.20
2018-09-15T03:19:03.144Z,19.10
2018-09-15T03:21:34.249Z,19.10
2018-09-15T03:24:05.312Z,19.20
2018-09-15T03:26:36.549Z,19.10
2018-09-15T03:29:07.676Z,19.00
2018-09-15T03:31:38.762Z,19.10
2018-09-15T03:34:10.163Z,19.10
2018-09-15T03:36:41.394Z,18.90
2018-09-15T03:39:13.629Z,19.10
2018-09-15T03:41:44.946Z,19.10
2018-09-15T03:44:16.056Z,19.00
2018-09-15T03:46:47.164Z,19.00
2018-09-15T03:49:18.243Z,19.00
2018-09-15T03:51:49.322Z,19.00
2018-09-15T03:54:22.024Z,18.90
2018-09-15T03:56:53.256Z,18.90
2018-09-15T03:59:24.481Z,18.80
2018-09-15T04:01:55.768Z,18.90
2018-09-15T04:04:26.909Z,19.00
2018-09-15T04:06:58.210Z,19.00
2018-09-15T04:09:29.285Z,19.10
2018-09-15T04:12:00.564Z,19.10
2018-09-15T04:14:31.704Z,19.00
2018-09-15T04:17:02.808Z,18.90
2018-09-15T04:19:33.859Z,18.70
2018-09-15T04:22:04.899Z,18.60
2018-09-15T04:24:35.892Z,18.60
2018-09-15T04:27:06.914Z,18.50
2018-09-15T04:29:38.080Z,18.50
2018-09-15T04:32:09.146Z,18.40
2018-09-15T04:34:40.197Z,18.50
2018-09-15T04:37:11.215Z,18.50
2018-09-15T04:39:42.262Z,18.60
2018-09-15T04:42:13.338Z,18.60
2018-09-15T04:44:44.580Z,18.60
2018-09-15T04:47:15.718Z,18.60
2018-09-15T04:49:46.800Z,18.50
2018-09-15T04:52:17.899Z,18.40
2018-09-15T04:54:49.138Z,18.40
2018-09-15T04:57:20.455Z,18.40
2018-09-15T04:59:51.535Z,18.40
2018-09-15T05:02:22.659Z,18.30
2018-09-15T05:04:53.745Z,18.20
2018-09-15T05:07:24.895Z,18.20
2018-09-15T05:09:55.962Z,18.10
2018-09-15T05:12:27.082Z,18.10
2018-09-15T05:14:58.279Z,18.00
2018-09-15T05:17:29.336Z,18.00
2018-09-15T05:20:00.529Z,18.00
2018-09-15T05:22:31.630Z,17.90
2018-09-15T05:25:02.651Z,17.90
2018-09-15T05:27:33.703Z,17.90
2018-09-15T05:30:05.028Z,17.80
2018-09-15T05:32:36.135Z,17.80
2018-09-15T05:35:07.180Z,17.80
2018-09-15T05:37:38.136Z,17.90
2018-09-15T05:40:09.235Z,17.90
2018-09-15T05:42:40.252Z,17.80
2018-09-15T05:45:11.287Z,17.80
2018-09-15T05:47:42.419Z,17.80
2018-09-15T05:50:13.609Z,17.80
2018-09-15T05:52:44.719Z,17.80
2018-09-15T05:55:15.913Z,17.60
2018-09-15T05:57:46.996Z,17.60
2018-09-15T06:00:18.154Z,17.50
2018-09-15T06:02:49.196Z,17.50
2018-09-15T06:05:20.343Z,17.40
2018-09-15T06:07:51.349Z,17.40
2018-09-15T06:10:22.466Z,17.50
2018-09-15T06:12:53.556Z,17.70
2018-09-15T06:15:24.569Z,17.60
2018-09-15T06:17:55.652Z,17.50
2018-09-15T06:20:26.766Z,17.50
2018-09-15T06:22:57.814Z,17.40
2018-09-15T06:25:28.878Z,17.40
2018-09-15T06:28:00.042Z,17.40
2018-09-15T06:30:31.089Z,17.40
2018-09-15T06:33:02.227Z,17.30
2018-09-15T06:35:33.603Z,17.20
2018-09-15T06:38:04.606Z,17.20
2018-09-15T06:40:35.667Z,17.20
2018-09-15T06:43:07.062Z,17.20
2018-09-15T06:45:38.210Z,17.20
2018-09-15T06:48:09.571Z,17.20
2018-09-15T06:50:40.648Z,17.20
2018-09-15T06:53:11.874Z,17.20
2018-09-15T06:55:42.890Z,17.10
2018-09-15T06:58:13.968Z,17.00
2018-09-15T07:00:45.069Z,17.10
2018-09-15T07:03:16.172Z,17.00
2018-09-15T07:05:47.519Z,17.00
2018-09-15T07:08:18.620Z,16.90
2018-09-15T07:10:49.838Z,17.00
2018-09-15T07:13:20.875Z,17.10
2018-09-15T07:15:52.040Z,17.20
2018-09-15T07:18:23.126Z,17.20
2018-09-15T07:20:54.417Z,17.20
2018-09-15T07:23:25.480Z,17.30
2018-09-15T07:25:56.651Z,17.20
2018-09-15T07:28:27.711Z,17.10
2018-09-15T07:30:58.911Z,17.10
2018-09-15T07:33:30.048Z,17.10
2018-09-15T07:36:01.126Z,17.10
2018-09-15T07:38:32.124Z,17.20
2018-09-15T07:41:03.191Z,17.10
2018-09-15T07:43:34.216Z,17.00
2018-09-15T07:46:05.255Z,17.00
2018-09-15T07:48:36.622Z,17.00
2018-09-15T07:51:08.292Z,17.20
2018-09-15T07:53:39.608Z,17.20
2018-09-15T07:56:10.771Z,17.30
2018-09-15T07:58:42.004Z,17.30
2018-09-15T08:01:13.140Z,17.20
2018-09-15T08:03:44.504Z,17.20
2018-09-15T08:06:15.629Z,17.10
2018-09-15T08:08:46.733Z,17.10
2018-09-15T08:11:17.788Z,17.10
2018-09-15T08:13:49.304Z,17.10
2018-09-15T08:16:20.375Z,17.10
2018-09-15T08:18:51.426Z,17.20
2018-09-15T08:21:22.635Z,17.20
2018-09-15T08:23:53.878Z,17.20
2018-09-15T08:26:25.094Z,17.20
2018-09-15T08:28:56.236Z,17.30
2018-09-15T08:31:27.412Z,17.20
2018-09-15T08:33:58.488Z,17.30
2018-09-15T08:38:55.325Z,17.30
2018-09-15T08:41:26.502Z,17.30
2018-09-15T08:43:57.742Z,17.30
2018-09-15T08:46:28.890Z,17.30
2018-09-15T08:48:59.990Z,17.40
2018-09-15T08:51:31.189Z,17.40
2018-09-15T08:54:02.351Z,17.50
2018-09-15T08:56:33.425Z,17.50
2018-09-15T08:59:04.824Z,17.50
2018-09-15T09:01:35.979Z,17.40
2018-09-15T09:04:07.203Z,17.40
2018-09-15T09:06:38.422Z,17.50
2018-09-15T09:09:12.704Z,17.40
2018-09-15T09:11:43.797Z,17.50
2018-09-15T09:14:15.087Z,17.40
2018-09-15T09:16:46.102Z,17.40
2018-09-15T09:19:17.218Z,17.40
2018-09-15T09:21:48.219Z,17.40
2018-09-15T09:24:19.322Z,17.50
2018-09-15T09:26:50.416Z,17.60
2018-09-15T09:29:21.565Z,17.60
2018-09-15T09:31:52.972Z,17.50
2018-09-15T09:34:23.968Z,17.60
2018-09-15T09:36:55.014Z,17.60
2018-09-15T09:39:26.356Z,17.50
2018-09-15T09:41:57.498Z,17.50
2018-09-15T09:44:28.667Z,17.50
2018-09-15T09:46:59.784Z,17.50
2018-09-15T09:49:30.874Z,17.40
2018-09-15T09:52:02.050Z,17.50
2018-09-15T09:54:33.138Z,17.40
2018-09-15T09:57:04.124Z,17.30
2018-09-15T09:59:35.412Z,17.40
2018-09-15T10:02:11.042Z,17.40
2018-09-15T10:04:42.237Z,17.30
2018-09-15T10:07:13.583Z,17.20
2018-09-15T10:09:44.642Z,17.30
2018-09-15T10:12:15.727Z,17.20
2018-09-15T10:14:46.899Z,17.20
2018-09-15T10:17:18.174Z,17.20
2018-09-15T10:19:49.410Z,17.20
2018-09-15T10:22:20.421Z,17.10
2018-09-15T10:24:51.466Z,17.10
2018-09-15T10:27:22.521Z,17.20
2018-09-15T10:29:53.579Z,17.30
2018-09-15T10:32:24.611Z,17.20
2018-09-15T10:34:55.628Z,17.10
2018-09-15T10:37:26.776Z,17.10
2018-09-15T10:39:57.787Z,17.10
2018-09-15T10:42:28.990Z,17.00
2018-09-15T10:45:00.135Z,17.10
2018-09-15T10:47:31.309Z,17.10
2018-09-15T10:50:02.301Z,17.00
2018-09-15T10:52:33.363Z,17.00
2018-09-15T10:55:04.400Z,17.00
2018-09-15T10:57:35.400Z,16.90
2018-09-15T11:00:06.652Z,16.90
2018-09-15T11:02:37.672Z,17.00
2018-09-15T11:05:08.790Z,17.10
2018-09-15T11:07:39.819Z,17.10
2018-09-15T11:10:10.832Z,17.20
2018-09-15T11:12:41.930Z,17.30
2018-09-15T11:15:13.026Z,17.30
2018-09-15T11:17:44.079Z,17.20
2018-09-15T11:20:15.080Z,17.30
2018-09-15T11:22:46.373Z,17.20
2018-09-15T11:25:17.676Z,17.10
2018-09-15T11:27:48.859Z,17.10
2018-09-15T11:30:19.968Z,17.10
2018-09-15T11:32:51.029Z,17.10
2018-09-15T11:35:22.118Z,17.10
2018-09-15T11:37:53.196Z,17.10
2018-09-15T11:40:24.275Z,17.10
2018-09-15T11:42:55.561Z,17.10
2018-09-15T11:45:26.708Z,17.10
2018-09-15T11:47:57.932Z,17.20
2018-09-15T11:50:29.177Z,17.30
2018-09-15T11:53:00.586Z,17.50
2018-09-15T11:55:31.747Z,17.60
2018-09-15T11:58:02.966Z,17.80
2018-09-15T12:00:36.696Z,17.90
2018-09-15T12:03:07.807Z,18.00
2018-09-15T12:05:38.863Z,18.20
2018-09-15T12:08:09.842Z,18.30
2018-09-15T12:10:40.958Z,18.40
2018-09-15T12:13:12.094Z,18.50
2018-09-15T12:15:43.266Z,18.60
2018-09-15T12:18:14.296Z,18.70
2018-09-15T12:20:45.829Z,18.90
2018-09-15T12:23:16.824Z,19.10
2018-09-15T12:25:47.791Z,19.20
2018-09-15T12:28:18.839Z,19.40
2018-09-15T12:30:50.163Z,19.60
2018-09-15T12:33:21.274Z,19.80
2018-09-15T12:35:52.358Z,20.00
2018-09-15T12:38:23.553Z,20.20
2018-09-15T12:40:54.653Z,20.30
2018-09-15T12:43:25.724Z,20.50
2018-09-15T12:45:56.799Z,20.60
2018-09-15T12:48:27.819Z,20.80
2018-09-15T12:50:58.937Z,21.00
2018-09-15T12:53:29.999Z,21.10
2018-09-15T12:56:00.948Z,21.30
2018-09-15T12:58:31.956Z,21.50
2018-09-15T13:01:03.063Z,21.60
2018-09-15T13:03:34.028Z,21.80
2018-09-15T13:06:05.073Z,22.00
2018-09-15T13:08:36.223Z,22.20
2018-09-15T13:11:07.499Z,22.40
2018-09-15T13:13:38.615Z,22.50
2018-09-15T13:16:09.657Z,22.70
2018-09-15T13:18:40.650Z,22.80
2018-09-15T13:21:11.691Z,23.00
2018-09-15T13:23:42.715Z,23.10
2018-09-15T13:26:13.780Z,23.30
2018-09-15T13:28:44.916Z,23.50
2018-09-15T13:31:16.057Z,23.60
2018-09-15T13:33:47.104Z,23.80
2018-09-15T13:36:18.106Z,23.90
2018-09-15T13:38:49.261Z,24.00
2018-09-15T13:41:21.169Z,24.10
2018-09-15T13:43:52.267Z,24.20
2018-09-15T13:46:23.330Z,24.40
2018-09-15T13:48:54.493Z,24.40
2018-09-15T13:51:25.572Z,24.60
2018-09-15T13:53:56.902Z,24.80
2018-09-15T13:56:28.096Z,24.80
2018-09-15T13:58:59.188Z,25.00
2018-09-15T14:01:30.252Z,25.10
2018-09-15T14:04:01.379Z,25.30
2018-09-15T14:06:32.442Z,25.40
2018-09-15T14:09:03.744Z,25.50
2018-09-15T14:11:34.710Z,25.70
2018-09-15T14:14:05.830Z,25.80
2018-09-15T14:16:37.035Z,26.00
2018-09-15T14:19:08.231Z,26.00
2018-09-15T14:21:39.390Z,26.20
2018-09-15T14:24:10.435Z,26.30
2018-09-15T14:26:41.725Z,26.40
2018-09-15T14:29:12.822Z,26.50
2018-09-15T14:31:43.788Z,26.50
2018-09-15T14:34:14.896Z,26.60
2018-09-15T14:36:46.254Z,26.60
2018-09-15T14:39:17.264Z,26.60
2018-09-15T14:41:48.227Z,26.70
2018-09-15T14:44:19.384Z,26.90
2018-09-15T14:46:50.440Z,27.10
2018-09-15T14:49:21.605Z,27.30
2018-09-15T14:51:52.763Z,27.40
2018-09-15T14:54:23.848Z,27.40
2018-09-15T14:56:54.890Z,27.40
2018-09-15T14:59:26.329Z,27.50
2018-09-15T15:01:57.442Z,27.70
2018-09-15T15:04:28.447Z,27.80
2018-09-15T15:06:59.500Z,27.80
2018-09-15T15:09:30.629Z,27.50
2018-09-15T15:12:01.764Z,27.60
2018-09-15T15:14:32.926Z,28.00
2018-09-15T15:17:04.095Z,28.40
2018-09-15T15:19:35.498Z,28.30
2018-09-15T15:22:06.561Z,28.10
2018-09-15T15:24:37.575Z,27.80
2018-09-15T15:27:08.580Z,27.70
2018-09-15T15:29:39.592Z,27.80
2018-09-15T15:32:10.769Z,27.90
2018-09-15T15:34:41.801Z,28.10
2018-09-15T15:37:13.048Z,28.30
2018-09-15T15:39:44.140Z,28.60
2018-09-15T15:42:27.268Z,29.00
2018-09-15T15:44:58.342Z,29.20
2018-09-15T15:47:30.453Z,29.30
2018-09-15T15:50:01.675Z,29.20
2018-09-15T15:52:32.641Z,29.40
2018-09-15T15:55:03.744Z,29.30
2018-09-15T15:57:35.244Z,28.70
2018-09-15T16:00:06.999Z,28.70
2018-09-15T16:02:38.103Z,28.60
2018-09-15T16:05:09.267Z,28.40
2018-09-15T16:07:40.457Z,28.30
2018-09-15T16:10:11.675Z,28.50
2018-09-15T16:12:42.806Z,28.90
2018-09-15T16:15:13.795Z,28.80
2018-09-15T16:17:45.086Z,28.60
2018-09-15T16:20:16.209Z,28.40
2018-09-15T16:22:47.294Z,28.50
2018-09-15T16:25:18.393Z,28.90
2018-09-15T16:27:49.694Z,29.30
2018-09-15T16:30:20.835Z,29.70
2018-09-15T16:32:51.878Z,29.30
2018-09-15T16:35:23.032Z,28.60
2018-09-15T16:38:08.715Z,29.10
2018-09-15T16:40:40.315Z,29.50
2018-09-15T16:43:11.480Z,30.10
2018-09-15T16:45:42.604Z,30.40
2018-09-15T16:48:13.738Z,30.30
2018-09-15T16:50:44.836Z,30.80
2018-09-15T16:53:15.875Z,31.00
2018-09-15T16:55:46.910Z,30.90
2018-09-15T16:58:18.106Z,31.10
2018-09-15T17:00:49.197Z,31.20
2018-09-15T17:03:20.279Z,31.30
2018-09-15T17:05:51.333Z,31.50
2018-09-15T17:08:22.417Z,31.40
2018-09-15T17:10:53.505Z,30.90
2018-09-15T17:13:24.599Z,29.90
2018-09-15T17:15:55.741Z,30.20
2018-09-15T17:18:26.827Z,30.00
2018-09-15T17:20:57.996Z,30.20
2018-09-15T17:23:29.249Z,30.40
2018-09-15T17:26:00.239Z,30.70
2018-09-15T17:28:31.196Z,31.10
2018-09-15T17:31:02.496Z,31.40
2018-09-15T17:33:33.552Z,31.30
2018-09-15T17:36:04.729Z,31.40
2018-09-15T17:38:36.104Z,31.30
2018-09-15T17:41:07.164Z,30.40
2018-09-15T17:43:38.250Z,30.30
2018-09-15T17:46:09.353Z,30.30
2018-09-15T17:48:40.334Z,30.50
2018-09-15T17:51:11.374Z,30.60
2018-09-15T17:53:42.365Z,30.60
2018-09-15T17:56:13.423Z,31.00
2018-09-15T17:58:44.478Z,31.10
2018-09-15T18:01:15.558Z,31.50
2018-09-15T18:03:46.609Z,31.60
2018-09-15T18:06:17.702Z,31.80
2018-09-15T18:08:48.819Z,31.90
2018-09-15T18:11:19.933Z,32.00
2018-09-15T18:13:51.045Z,32.00
2018-09-15T18:16:22.090Z,32.20
2018-09-15T18:18:53.170Z,32.00
2018-09-15T18:21:24.403Z,31.80
2018-09-15T18:23:55.452Z,31.80
2018-09-15T18:26:26.554Z,31.90
2018-09-15T18:28:57.747Z,31.80
2018-09-15T18:31:29.111Z,31.90
2018-09-15T18:34:00.151Z,32.10
2018-09-15T18:36:31.311Z,32.40
2018-09-15T18:39:02.536Z,32.20
2018-09-15T18:41:33.463Z,32.40
2018-09-15T18:44:04.530Z,32.30
2018-09-15T18:46:35.908Z,32.60
2018-09-15T18:49:07.237Z,32.70
2018-09-15T18:51:38.319Z,32.70
2018-09-15T18:54:09.636Z,32.80
2018-09-15T18:56:40.836Z,32.90
2018-09-15T18:59:11.868Z,32.80
2018-09-15T19:01:42.930Z,32.80
2018-09-15T19:04:13.996Z,32.60
2018-09-15T19:06:45.012Z,31.90
2018-09-15T19:09:16.027Z,31.60
2018-09-15T19:11:47.195Z,31.70
2018-09-15T19:14:18.351Z,31.90
2018-09-15T19:16:49.474Z,32.00
2018-09-15T19:19:20.761Z,32.00
2018-09-15T19:21:51.881Z,32.60
2018-09-15T19:24:23.216Z,32.20
2018-09-15T19:26:54.273Z,31.40
2018-09-15T19:29:25.518Z,31.60
2018-09-15T19:31:56.597Z,31.10
2018-09-15T19:34:27.665Z,30.60
2018-09-15T19:36:58.751Z,30.00
2018-09-15T19:39:29.821Z,29.60
2018-09-15T19:42:01.062Z,29.40
2018-09-15T19:44:32.186Z,29.30
2018-09-15T19:47:03.161Z,29.80
2018-09-15T19:49:34.143Z,30.20
2018-09-15T19:52:05.181Z,30.70
2018-09-15T19:54:36.227Z,30.70
2018-09-15T19:57:08.436Z,31.10
2018-09-15T19:59:39.437Z,31.40
2018-09-15T20:02:10.999Z,30.90
2018-09-15T20:04:42.276Z,30.30
2018-09-15T20:07:13.688Z,30.70
2018-09-15T20:09:45.040Z,31.10
2018-09-15T20:12:16.272Z,31.70
2018-09-15T20:14:47.243Z,32.20
2018-09-15T20:17:16.009Z,32.20
2018-09-15T20:19:44.863Z,32.30
2018-09-15T20:22:16.232Z,32.30
2018-09-15T20:24:47.535Z,32.40
2018-09-15T20:27:18.540Z,32.30
2018-09-15T20:29:49.617Z,32.40
2018-09-15T20:32:20.756Z,32.40
2018-09-15T20:34:51.960Z,32.10
2018-09-15T20:37:23.067Z,32.30
2018-09-15T20:39:54.138Z,32.10
2018-09-15T20:42:25.449Z,32.00
2018-09-15T20:44:56.506Z,31.70
2018-09-15T20:47:28.273Z,31.50
2018-09-15T20:49:59.412Z,31.20
2018-09-15T20:52:30.673Z,31.40
2018-09-15T20:55:01.727Z,31.50
2018-09-15T20:57:32.849Z,31.60
2018-09-15T21:00:03.911Z,31.60
2018-09-15T21:02:34.955Z,31.70
2018-09-15T21:05:06.169Z,31.60
2018-09-15T21:07:37.417Z,31.40
2018-09-15T21:10:08.740Z,30.70
2018-09-15T21:12:39.922Z,30.50
2018-09-15T21:15:11.085Z,30.20
2018-09-15T21:17:42.123Z,29.70
2018-09-15T21:20:13.221Z,29.30
2018-09-15T21:22:44.184Z,29.60
2018-09-15T21:25:15.266Z,30.10
2018-09-15T21:27:46.380Z,30.40
2018-09-15T21:30:17.527Z,30.60
2018-09-15T21:32:48.689Z,30.70
2018-09-15T21:35:20.103Z,30.70
2018-09-15T21:37:51.089Z,30.70
2018-09-15T21:40:22.214Z,30.60
2018-09-15T21:42:53.331Z,30.70
2018-09-15T21:45:24.285Z,30.60
2018-09-15T21:47:55.286Z,30.40
2018-09-15T21:50:26.349Z,30.20
2018-09-15T21:52:57.398Z,30.10
2018-09-15T21:55:28.341Z,30.00
2018-09-15T21:57:59.480Z,29.80
2018-09-15T22:00:30.587Z,29.60
2018-09-15T22:03:01.569Z,29.50
2018-09-15T22:05:32.532Z,29.30
2018-09-15T22:08:03.577Z,29.20
2018-09-15T22:10:34.548Z,29.00
2018-09-15T22:13:05.525Z,28.80
2018-09-15T22:15:36.598Z,28.70
2018-09-15T22:18:07.508Z,28.50
2018-09-15T22:20:38.512Z,28.30
2018-09-15T22:23:09.497Z,28.10
2018-09-15T22:25:40.555Z,27.90
2018-09-15T22:28:13.442Z,27.70
2018-09-15T22:30:46.359Z,27.50
2018-09-15T22:33:17.878Z,27.40
2018-09-15T22:35:49.033Z,27.20
2018-09-15T22:38:20.394Z,27.10
2018-09-15T22:40:51.662Z,26.90
2018-09-15T22:43:25.797Z,26.70
2018-09-15T22:45:58.222Z,26.60
2018-09-15T22:48:29.654Z,26.60
2018-09-15T22:51:05.681Z,26.50
2018-09-15T22:53:37.700Z,26.30
2018-09-15T22:56:08.936Z,26.20
2018-09-15T22:58:42.289Z,26.00
2018-09-15T23:01:17.613Z,25.80
2018-09-15T23:03:49.374Z,25.60
2018-09-15T23:06:21.396Z,25.50
2018-09-15T23:08:56.829Z,25.30
2018-09-15T23:11:35.932Z,25.10
2018-09-15T23:14:07.576Z,25.00
2018-09-15T23:16:39.149Z,24.90
2018-09-15T23:19:10.881Z,24.80
2018-09-15T23:21:41.906Z,24.70
2018-09-15T23:24:12.900Z,24.60
2018-09-15T23:26:43.826Z,24.40
2018-09-15T23:29:15.208Z,24.30
2018-09-15T23:31:46.613Z,24.20
2018-09-15T23:34:18.460Z,24.20
2018-09-15T23:36:49.795Z,24.10
2018-09-15T23:39:21.416Z,24.10
2018-09-15T23:41:52.456Z,24.00
2018-09-15T23:44:23.649Z,24.00
2018-09-15T23:46:54.589Z,23.90
2018-09-15T23:49:26.264Z,23.80
2018-09-15T23:51:57.505Z,23.80
2018-09-15T23:54:28.936Z,23.70
2018-09-15T23:57:00.240Z,23.70
2018-09-15T23:59:31.673Z,23.60
